Time;durP1;ratioP1;P1;durP2;ratioP2;P2;SDS_P1;SDS_P2;PMS_P1;PMS_P2;Temp;Humidity;BMP_temperature;BMP_pressure;BME280_temperature;BME280_humidity;BME280_pressure;Samples;Min_cycle;Max_cycle;Signal;HPM_P1;HPM_P2
2022/01/09 00:02:14;;;;;;;137.10;68.88;;;1.40;99.90;;;;;;5073108;28;20035;-79
2022/01/09 00:04:41;;;;;;;127.57;68.13;;;1.50;99.90;;;;;;5090927;28;20054;-79
2022/01/09 00:07:09;;;;;;;121.32;63.42;;;1.50;99.90;;;;;;5089321;28;20054;-80
2022/01/09 00:09:37;;;;;;;132.10;71.45;;;1.60;99.90;;;;;;5076748;28;20053;-78
2022/01/09 00:12:06;;;;;;;145.70;74.57;;;1.60;99.90;;;;;;5097412;28;20123;-80
2022/01/09 00:14:33;;;;;;;143.10;73.20;;;1.50;99.90;;;;;;5078408;28;20083;-78
2022/01/09 00:17:01;;;;;;;143.13;74.90;;;1.40;99.90;;;;;;5094861;28;20028;-80
2022/01/09 00:19:30;;;;;;;154.75;78.50;;;1.40;99.90;;;;;;5091036;28;20146;-79
2022/01/09 00:21:57;;;;;;;153.02;79.43;;;1.30;99.90;;;;;;5076572;28;20045;-79
2022/01/09 00:24:25;;;;;;;149.30;75.47;;;1.30;99.90;;;;;;5065839;28;20049;-80
2022/01/09 00:26:52;;;;;;;154.00;79.82;;;1.30;99.90;;;;;;5085033;28;20118;-79
2022/01/09 00:29:20;;;;;;;169.23;82.75;;;1.30;99.90;;;;;;5065805;28;20101;-81
2022/01/09 00:31:47;;;;;;;176.50;89.20;;;1.20;99.90;;;;;;5083577;28;20040;-81
2022/01/09 00:34:15;;;;;;;172.73;87.53;;;1.20;99.90;;;;;;5084654;28;20037;-79
2022/01/09 00:36:43;;;;;;;170.20;86.55;;;1.20;99.90;;;;;;5065631;28;20437;-80
2022/01/09 00:39:11;;;;;;;169.68;86.20;;;1.10;99.90;;;;;;5083520;28;20075;-80
2022/01/09 00:41:39;;;;;;;167.02;88.05;;;1.00;99.90;;;;;;5089398;28;20131;-81
2022/01/09 00:44:06;;;;;;;174.45;92.18;;;0.90;99.90;;;;;;5084933;28;20116;-80
2022/01/09 00:46:34;;;;;;;167.68;86.88;;;0.70;99.90;;;;;;5082770;28;20048;-81
2022/01/09 00:49:01;;;;;;;170.18;91.07;;;0.60;99.90;;;;;;5095990;28;20020;-80
2022/01/09 00:51:29;;;;;;;163.77;88.13;;;0.60;99.90;;;;;;5068290;28;20059;-79
2022/01/09 00:53:58;;;;;;;163.65;87.00;;;0.50;99.90;;;;;;5087474;28;20056;-80
2022/01/09 00:56:25;;;;;;;167.38;89.60;;;0.50;99.90;;;;;;5087460;28;20083;-80
2022/01/09 00:58:53;;;;;;;168.70;87.90;;;0.40;99.90;;;;;;5092301;28;20075;-80
2022/01/09 01:01:20;;;;;;;172.13;88.85;;;0.30;99.90;;;;;;5091109;28;20054;-82
2022/01/09 01:03:47;;;;;;;167.82;89.72;;;0.30;99.90;;;;;;5082960;28;20060;-79
2022/01/09 01:06:15;;;;;;;164.68;92.47;;;0.30;99.90;;;;;;5079147;28;20108;-78
2022/01/09 01:08:42;;;;;;;182.30;93.28;;;0.20;99.90;;;;;;5077588;28;20052;-80
2022/01/09 01:11:12;;;;;;;166.63;90.18;;;0.20;99.90;;;;;;5078579;28;20049;-79
2022/01/09 01:13:40;;;;;;;174.70;90.57;;;0.30;99.90;;;;;;5078639;28;20037;-78
2022/01/09 01:16:07;;;;;;;149.85;82.53;;;0.20;99.90;;;;;;5079208;28;20048;-79
2022/01/09 01:18:35;;;;;;;158.68;85.90;;;0.20;99.90;;;;;;5079823;28;20108;-80
2022/01/09 01:21:03;;;;;;;155.18;83.75;;;0.10;99.90;;;;;;5081254;28;20045;-79
2022/01/09 01:23:30;;;;;;;175.75;93.75;;;0.00;99.90;;;;;;5081353;28;20400;-80
2022/01/09 01:26:01;;;;;;;159.15;85.38;;;-0.10;99.90;;;;;;5083375;28;20575;-79
2022/01/09 01:28:30;;;;;;;150.38;81.85;;;-0.20;99.90;;;;;;5066218;28;20071;-80
2022/01/09 01:30:57;;;;;;;154.75;81.80;;;-0.20;99.90;;;;;;5063243;28;20399;-80
2022/01/09 01:33:25;;;;;;;148.60;78.18;;;-0.10;99.90;;;;;;5081005;28;20045;-79
2022/01/09 01:35:53;;;;;;;144.68;75.55;;;0.00;99.90;;;;;;5063876;28;20049;-81
2022/01/09 01:38:20;;;;;;;148.65;80.10;;;-0.10;99.90;;;;;;5081533;28;20095;-80
2022/01/09 01:40:48;;;;;;;147.35;79.43;;;-0.10;99.90;;;;;;5082664;28;20173;-81
2022/01/09 01:43:15;;;;;;;146.18;79.57;;;-0.10;99.90;;;;;;5081158;28;20040;-80
2022/01/09 01:45:44;;;;;;;143.35;77.22;;;-0.20;99.90;;;;;;5080854;28;20059;-78
2022/01/09 01:48:11;;;;;;;137.40;74.78;;;-0.20;99.90;;;;;;5079377;28;20104;-79
2022/01/09 01:50:41;;;;;;;143.25;75.57;;;-0.20;99.90;;;;;;5077231;28;20048;-78
2022/01/09 01:53:14;;;;;;;122.70;67.20;;;-0.20;99.90;;;;;;5042818;28;20409;-79
2022/01/09 01:55:41;;;;;;;118.15;64.78;;;-0.20;99.90;;;;;;5059056;28;20066;-80
2022/01/09 01:58:12;;;;;;;113.65;62.13;;;-0.20;99.90;;;;;;5076831;28;20066;-79
2022/01/09 02:00:40;;;;;;;124.97;65.78;;;-0.30;99.90;;;;;;5059005;28;20131;-79
2022/01/09 02:03:10;;;;;;;116.00;61.83;;;-0.30;99.90;;;;;;5077400;28;20041;-79
2022/01/09 02:05:41;;;;;;;119.07;64.20;;;-0.30;99.90;;;;;;5077998;28;20393;-79
2022/01/09 02:08:08;;;;;;;116.28;59.15;;;-0.30;99.90;;;;;;5089962;28;20158;-78
2022/01/09 02:10:39;;;;;;;115.10;62.30;;;-0.30;99.90;;;;;;5058683;28;20047;-78
2022/01/09 02:13:08;;;;;;;117.63;62.08;;;-0.20;99.90;;;;;;5057554;28;20542;-81
2022/01/09 02:15:37;;;;;;;105.05;56.72;;;-0.20;99.90;;;;;;5056460;28;20053;-79
2022/01/09 02:18:07;;;;;;;99.43;56.08;;;-0.20;99.90;;;;;;5057767;28;20037;-81
2022/01/09 02:20:37;;;;;;;104.97;60.35;;;-0.20;99.90;;;;;;5069279;28;20098;-79
2022/01/09 02:23:06;;;;;;;108.63;60.47;;;-0.20;99.90;;;;;;5096330;28;20036;-79
2022/01/09 02:25:34;;;;;;;109.93;61.17;;;-0.20;99.90;;;;;;5076696;28;20115;-79
2022/01/09 02:28:02;;;;;;;104.43;58.20;;;-0.20;99.90;;;;;;5098168;28;20044;-78
2022/01/09 02:30:32;;;;;;;99.70;55.15;;;-0.10;99.90;;;;;;5080456;28;20120;-79
2022/01/09 02:33:00;;;;;;;90.82;50.80;;;-0.10;99.90;;;;;;5097299;28;20090;-79
2022/01/09 02:35:29;;;;;;;104.85;56.63;;;-0.10;99.90;;;;;;5040726;28;20145;-78
2022/01/09 02:37:58;;;;;;;113.70;58.90;;;-0.20;99.90;;;;;;5099294;28;20052;-80
2022/01/09 02:40:26;;;;;;;108.82;60.13;;;-0.20;99.90;;;;;;5098057;28;20040;-81
2022/01/09 02:42:55;;;;;;;124.50;64.60;;;-0.10;99.90;;;;;;5081526;28;20044;-80
2022/01/09 02:45:24;;;;;;;124.88;70.15;;;0.00;99.90;;;;;;5081112;28;20078;-79
2022/01/09 02:47:55;;;;;;;133.32;71.50;;;0.00;99.90;;;;;;5067000;28;20075;-80
2022/01/09 02:50:32;;;;;;;140.90;79.45;;;0.00;99.90;;;;;;5079891;28;20036;-81
2022/01/09 02:53:12;;;;;;;148.13;80.35;;;-0.10;99.90;;;;;;5062837;28;20481;-79
2022/01/09 02:55:40;;;;;;;148.65;80.90;;;-0.20;99.90;;;;;;5096506;28;20134;-79
2022/01/09 02:58:08;;;;;;;139.63;75.47;;;-0.10;99.90;;;;;;5099213;28;20036;-80
2022/01/09 03:00:37;;;;;;;129.88;73.53;;;-0.10;99.90;;;;;;5095261;28;20067;-80
2022/01/09 03:03:05;;;;;;;136.50;75.60;;;-0.20;99.90;;;;;;5077300;28;20053;-80
2022/01/09 03:05:33;;;;;;;135.30;74.32;;;-0.10;99.90;;;;;;5061491;28;20048;-81
2022/01/09 03:08:02;;;;;;;125.35;69.97;;;0.00;99.90;;;;;;5080681;28;20060;-80
2022/01/09 03:10:30;;;;;;;121.78;66.65;;;0.00;99.90;;;;;;5096728;28;20063;-81
2022/01/09 03:12:58;;;;;;;120.05;68.68;;;0.00;99.90;;;;;;5080465;28;20055;-78
2022/01/09 03:15:26;;;;;;;125.88;69.43;;;0.00;99.90;;;;;;5079254;28;20498;-80
2022/01/09 03:17:54;;;;;;;131.00;70.65;;;0.00;99.90;;;;;;5077443;28;20132;-80
2022/01/09 03:20:24;;;;;;;127.80;68.03;;;0.00;99.90;;;;;;5079420;28;20492;-81
2022/01/09 03:22:53;;;;;;;130.35;68.22;;;-0.10;99.90;;;;;;5080504;28;20062;-81
2022/01/09 03:25:23;;;;;;;120.25;67.07;;;-0.10;99.90;;;;;;5098450;28;20039;-81
2022/01/09 03:27:50;;;;;;;127.15;69.20;;;-0.10;99.90;;;;;;5106315;28;20563;-79
2022/01/09 03:30:20;;;;;;;118.60;62.13;;;-0.10;99.90;;;;;;5089941;28;20059;-79
2022/01/09 03:32:48;;;;;;;101.95;55.10;;;-0.20;99.90;;;;;;5098194;28;20071;-79
2022/01/09 03:35:19;;;;;;;99.28;56.10;;;-0.20;99.90;;;;;;5093018;28;20033;-79
2022/01/09 03:37:48;;;;;;;98.90;53.25;;;-0.10;99.90;;;;;;5088713;28;20411;-81
2022/01/09 03:40:19;;;;;;;98.82;51.88;;;-0.20;99.90;;;;;;5080177;28;20048;-78
2022/01/09 03:42:49;;;;;;;96.70;52.55;;;-0.20;99.90;;;;;;5073711;28;20037;-79
2022/01/09 03:45:17;;;;;;;94.20;53.03;;;-0.20;99.90;;;;;;5050493;28;20037;-79
2022/01/09 03:47:45;;;;;;;88.28;51.80;;;-0.20;99.90;;;;;;5080217;28;20052;-81
2022/01/09 03:50:14;;;;;;;98.85;54.72;;;-0.20;99.90;;;;;;5080662;28;20059;-78
2022/01/09 03:52:41;;;;;;;97.43;53.30;;;-0.30;99.90;;;;;;5062375;28;20045;-78
2022/01/09 03:55:10;;;;;;;96.65;53.42;;;-0.40;99.90;;;;;;5079857;28;20037;-81
2022/01/09 03:57:38;;;;;;;94.55;51.97;;;-0.40;99.90;;;;;;5079726;28;20049;-79
2022/01/09 04:00:10;;;;;;;95.68;51.50;;;-0.20;99.90;;;;;;5080487;28;20033;-81
2022/01/09 04:02:39;;;;;;;93.90;54.25;;;-0.20;99.90;;;;;;5080011;28;20076;-80
2022/01/09 04:05:08;;;;;;;99.93;55.60;;;-0.10;99.90;;;;;;5080035;28;20075;-80
2022/01/09 04:07:35;;;;;;;105.57;55.00;;;0.00;99.90;;;;;;5079861;28;20044;-81
2022/01/09 04:10:04;;;;;;;100.90;56.95;;;0.00;99.90;;;;;;5080067;28;20042;-79
2022/01/09 04:12:35;;;;;;;120.60;64.90;;;0.00;99.90;;;;;;5080216;28;20045;-78
2022/01/09 04:15:06;;;;;;;119.80;66.80;;;0.10;99.90;;;;;;5079645;28;20041;-79
2022/01/09 04:17:44;;;;;;;113.80;62.50;;;0.10;99.90;;;;;;5080203;28;20044;-80
2022/01/09 04:20:12;;;;;;;112.32;61.92;;;0.10;99.90;;;;;;5080211;28;20176;-81
2022/01/09 04:22:40;;;;;;;111.60;62.50;;;0.10;99.90;;;;;;5079499;28;20040;-80
2022/01/09 04:25:08;;;;;;;111.45;60.05;;;0.10;99.90;;;;;;5079525;28;20032;-79
2022/01/09 04:27:37;;;;;;;102.05;56.55;;;0.10;99.90;;;;;;5080515;28;20090;-80
2022/01/09 04:30:05;;;;;;;105.70;58.15;;;0.20;99.90;;;;;;5080059;28;20047;-81
2022/01/09 04:32:34;;;;;;;96.63;52.90;;;0.20;99.90;;;;;;5079236;28;20041;-81
2022/01/09 04:35:02;;;;;;;98.78;52.55;;;0.20;99.90;;;;;;5055168;28;20052;-79
2022/01/09 04:37:30;;;;;;;92.35;50.38;;;0.20;99.90;;;;;;5076642;28;20048;-78
2022/01/09 04:39:58;;;;;;;99.88;51.30;;;0.20;99.90;;;;;;5079417;28;20039;-78
2022/01/09 04:42:31;;;;;;;91.20;50.25;;;0.20;99.90;;;;;;5078646;28;20067;-78
2022/01/09 04:44:59;;;;;;;87.15;47.90;;;0.20;99.90;;;;;;5070077;28;20039;-79
2022/01/09 04:47:26;;;;;;;93.18;50.92;;;0.30;99.90;;;;;;5079011;28;20045;-80
2022/01/09 04:49:55;;;;;;;85.85;48.35;;;0.20;99.90;;;;;;5077247;28;20071;-80
2022/01/09 04:52:27;;;;;;;85.80;45.90;;;0.20;99.90;;;;;;5078663;28;20052;-80
2022/01/09 04:54:55;;;;;;;80.75;44.38;;;0.20;99.90;;;;;;5071607;28;20391;-79
2022/01/09 04:57:22;;;;;;;75.22;42.63;;;0.10;99.90;;;;;;5078553;28;20064;-79
2022/01/09 04:59:50;;;;;;;76.55;43.92;;;0.10;99.90;;;;;;5061043;28;20075;-79
2022/01/09 05:02:17;;;;;;;74.65;44.78;;;0.00;99.90;;;;;;5079179;28;20124;-80
2022/01/09 05:04:45;;;;;;;78.13;44.08;;;0.00;99.90;;;;;;5060084;28;20044;-79
2022/01/09 05:07:14;;;;;;;83.57;46.00;;;-0.10;99.90;;;;;;5079036;28;20064;-81
2022/01/09 05:09:41;;;;;;;129.55;66.85;;;0.00;99.90;;;;;;5078923;28;20040;-80
2022/01/09 05:12:10;;;;;;;91.38;49.78;;;0.00;99.90;;;;;;5055291;28;20045;-81
2022/01/09 05:14:37;;;;;;;90.35;48.88;;;-0.10;99.90;;;;;;5060044;28;20039;-80
2022/01/09 05:17:05;;;;;;;100.28;54.95;;;-0.10;99.90;;;;;;5067128;28;20555;-81
2022/01/09 05:19:34;;;;;;;129.65;68.35;;;0.00;99.90;;;;;;5078938;28;20049;-79
2022/01/09 05:22:02;;;;;;;126.95;64.15;;;0.00;99.90;;;;;;5094881;28;20036;-80
2022/01/09 05:24:31;;;;;;;100.43;56.42;;;0.00;99.90;;;;;;5059727;28;20050;-80
2022/01/09 05:26:59;;;;;;;125.70;66.07;;;-0.10;99.90;;;;;;5077487;28;20059;-81
2022/01/09 05:29:26;;;;;;;121.47;66.78;;;-0.10;99.90;;;;;;5060937;28;20571;-79
2022/01/09 05:31:53;;;;;;;144.75;79.43;;;-0.20;99.90;;;;;;5060881;28;20048;-79
2022/01/09 05:34:21;;;;;;;131.57;71.20;;;-0.20;99.90;;;;;;5064168;28;20029;-80
2022/01/09 05:36:49;;;;;;;161.48;88.40;;;-0.20;99.90;;;;;;5058621;28;20050;-80
2022/01/09 05:39:16;;;;;;;173.98;89.93;;;-0.20;99.90;;;;;;5064332;28;20057;-80
2022/01/09 05:41:46;;;;;;;158.73;79.93;;;-0.10;99.90;;;;;;5077673;28;20044;-81
2022/01/09 05:44:14;;;;;;;130.68;68.28;;;-0.10;99.90;;;;;;5060513;28;20488;-80
2022/01/09 05:46:41;;;;;;;79.80;46.95;;;-0.10;99.90;;;;;;5060023;28;20064;-80
2022/01/09 05:49:09;;;;;;;85.05;48.50;;;0.00;99.90;;;;;;5060458;28;20116;-79
2022/01/09 05:51:36;;;;;;;106.88;59.25;;;0.00;99.90;;;;;;5076624;28;20070;-79
2022/01/09 05:54:04;;;;;;;139.00;73.35;;;0.00;99.90;;;;;;5069428;28;20514;-76
2022/01/09 05:56:31;;;;;;;138.60;75.30;;;0.00;99.90;;;;;;5077249;28;20045;-80
2022/01/09 05:59:01;;;;;;;137.13;75.70;;;-0.10;99.90;;;;;;5077188;28;20462;-80
2022/01/09 06:01:28;;;;;;;142.05;76.10;;;-0.10;99.90;;;;;;5078689;28;20040;-80
2022/01/09 06:03:56;;;;;;;139.00;73.47;;;-0.10;99.90;;;;;;5061703;28;20049;-80
2022/01/09 06:06:23;;;;;;;111.13;61.72;;;-0.10;99.90;;;;;;5080496;28;20075;-78
2022/01/09 06:08:51;;;;;;;115.75;63.15;;;-0.20;99.90;;;;;;5068688;28;20040;-81
2022/01/09 06:11:18;;;;;;;118.90;63.88;;;-0.20;99.90;;;;;;5066986;28;20057;-78
2022/01/09 06:13:46;;;;;;;129.02;70.78;;;-0.30;99.90;;;;;;5062656;28;20040;-80
2022/01/09 06:16:15;;;;;;;130.05;69.80;;;-0.40;99.90;;;;;;5058667;28;20090;-79
2022/01/09 06:18:42;;;;;;;129.68;70.05;;;-0.40;99.90;;;;;;5058579;28;20043;-80
2022/01/09 06:21:10;;;;;;;140.85;71.05;;;-0.40;99.90;;;;;;5058584;28;20128;-79
2022/01/09 06:23:37;;;;;;;141.60;75.15;;;-0.40;99.90;;;;;;5073595;28;20041;-78
2022/01/09 06:26:05;;;;;;;161.90;84.20;;;-0.40;99.90;;;;;;5049920;28;20137;-79
2022/01/09 06:28:32;;;;;;;170.15;88.72;;;-0.50;99.90;;;;;;5056349;28;20049;-81
2022/01/09 06:31:00;;;;;;;165.85;87.32;;;-0.60;99.90;;;;;;5057219;28;20063;-80
2022/01/09 06:33:29;;;;;;;169.38;91.55;;;-0.70;99.90;;;;;;5058784;28;20033;-79
2022/01/09 06:35:56;;;;;;;154.52;81.93;;;-0.80;99.90;;;;;;5056176;28;20040;-78
2022/01/09 06:38:24;;;;;;;148.68;76.50;;;-0.80;99.90;;;;;;5057513;28;20051;-80
2022/01/09 06:40:51;;;;;;;153.98;82.28;;;-0.80;99.90;;;;;;5055441;28;20040;-81
2022/01/09 06:43:19;;;;;;;154.38;90.05;;;-0.80;99.90;;;;;;5057278;28;20068;-80
2022/01/09 06:45:46;;;;;;;144.60;83.22;;;-0.70;99.90;;;;;;5057234;28;20033;-78
2022/01/09 06:48:14;;;;;;;192.52;104.63;;;-0.70;99.90;;;;;;5056523;28;20096;-81
2022/01/09 06:50:43;;;;;;;251.75;131.98;;;-0.70;99.90;;;;;;5057302;28;20041;-80
2022/01/09 06:53:10;;;;;;;216.65;118.13;;;-0.60;99.90;;;;;;5060800;28;20128;-82
2022/01/09 06:55:37;;;;;;;207.50;115.85;;;-0.60;99.90;;;;;;5060716;28;20131;-80
2022/01/09 06:58:05;;;;;;;167.45;93.60;;;-0.60;99.90;;;;;;5061584;28;20041;-80
2022/01/09 07:00:33;;;;;;;233.55;126.75;;;-0.60;99.90;;;;;;5060144;28;20053;-81
2022/01/09 07:03:00;;;;;;;267.88;146.80;;;-0.50;99.90;;;;;;5062637;28;20056;-80
2022/01/09 07:05:28;;;;;;;192.32;104.60;;;-0.50;99.90;;;;;;5061696;28;20033;-79
2022/01/09 07:07:57;;;;;;;164.55;90.20;;;-0.40;99.90;;;;;;5087637;28;20056;-81
2022/01/09 07:10:24;;;;;;;174.32;92.60;;;-0.40;99.90;;;;;;5085603;28;20401;-80
2022/01/09 07:12:51;;;;;;;183.05;96.00;;;-0.30;99.90;;;;;;5088891;28;20783;-79
2022/01/09 07:15:19;;;;;;;155.95;87.38;;;-0.30;99.90;;;;;;5087623;28;20047;-80
2022/01/09 07:17:46;;;;;;;151.82;83.97;;;-0.40;99.90;;;;;;5086449;28;20045;-80
2022/01/09 07:20:14;;;;;;;158.75;87.90;;;-0.30;99.90;;;;;;5075987;28;20050;-80
2022/01/09 07:22:42;;;;;;;174.10;94.18;;;-0.20;99.90;;;;;;5085796;28;20050;-81
2022/01/09 07:25:11;;;;;;;159.32;87.28;;;-0.20;99.90;;;;;;5085877;28;20124;-81
2022/01/09 07:27:39;;;;;;;158.25;81.13;;;-0.10;99.90;;;;;;5071565;28;20131;-80
2022/01/09 07:30:08;;;;;;;143.75;76.95;;;0.00;99.90;;;;;;5073180;28;20075;-81
2022/01/09 07:32:36;;;;;;;135.93;74.35;;;0.10;99.90;;;;;;5089281;28;20479;-80
2022/01/09 07:35:04;;;;;;;141.85;78.28;;;0.20;99.90;;;;;;5093368;28;20045;-79
2022/01/09 07:37:31;;;;;;;127.47;69.00;;;0.20;99.90;;;;;;5091890;28;20068;-80
2022/01/09 07:39:59;;;;;;;140.30;72.82;;;0.40;99.90;;;;;;5090626;28;20054;-81
2022/01/09 07:42:28;;;;;;;132.60;73.40;;;0.50;99.90;;;;;;5086937;28;20127;-80
2022/01/09 07:44:55;;;;;;;132.68;73.95;;;0.60;99.90;;;;;;5081078;28;20044;-79
2022/01/09 07:47:23;;;;;;;120.20;69.07;;;0.70;99.90;;;;;;5085781;28;20135;-82
2022/01/09 07:49:50;;;;;;;128.63;71.97;;;0.80;99.90;;;;;;5084880;28;20047;-81
2022/01/09 07:52:18;;;;;;;134.15;76.28;;;1.00;99.90;;;;;;5078588;28;20060;-81
2022/01/09 07:54:46;;;;;;;150.50;82.13;;;1.10;99.90;;;;;;5084315;28;20468;-81
2022/01/09 07:57:13;;;;;;;146.63;81.93;;;1.10;99.90;;;;;;5085842;28;20059;-81
2022/01/09 07:59:42;;;;;;;139.00;78.05;;;1.20;99.90;;;;;;5074640;28;20101;-80
2022/01/09 08:02:10;;;;;;;142.82;78.43;;;1.30;99.90;;;;;;5061534;28;20045;-78
2022/01/09 08:04:37;;;;;;;144.73;81.18;;;1.40;99.90;;;;;;5085256;28;20028;-79
2022/01/09 08:07:05;;;;;;;148.18;83.60;;;1.50;99.90;;;;;;5094701;28;20064;-79
2022/01/09 08:09:33;;;;;;;150.07;81.70;;;1.60;99.90;;;;;;5086275;28;20049;-80
2022/01/09 08:12:00;;;;;;;144.98;80.57;;;1.80;99.90;;;;;;5092036;28;20119;-82
2022/01/09 08:14:28;;;;;;;142.98;77.88;;;1.90;99.90;;;;;;5091339;28;20078;-80
2022/01/09 08:16:56;;;;;;;148.43;83.15;;;1.90;99.90;;;;;;5094887;28;20032;-79
2022/01/09 08:19:24;;;;;;;154.07;88.10;;;1.90;99.90;;;;;;5092302;28;20045;-81
2022/01/09 08:21:51;;;;;;;153.70;89.22;;;1.80;99.90;;;;;;5086869;28;20098;-80
2022/01/09 08:24:19;;;;;;;155.13;89.80;;;1.80;99.90;;;;;;5087296;28;20045;-82
2022/01/09 08:26:46;;;;;;;166.13;94.03;;;1.90;99.90;;;;;;5074223;28;20040;-83
2022/01/09 08:29:14;;;;;;;175.50;98.50;;;1.90;99.90;;;;;;5084040;28;20051;-82
2022/01/09 08:31:42;;;;;;;171.80;97.05;;;2.00;99.90;;;;;;5059901;28;20139;-83
2022/01/09 08:34:11;;;;;;;182.98;101.82;;;2.10;99.90;;;;;;5062260;28;20059;-84
2022/01/09 08:36:39;;;;;;;178.80;97.28;;;2.10;99.90;;;;;;5062670;28;20040;-83
2022/01/09 08:39:10;;;;;;;161.15;89.72;;;2.00;99.90;;;;;;5044217;28;20056;-83
2022/01/09 08:41:38;;;;;;;177.77;97.45;;;1.90;99.90;;;;;;5068409;28;20052;-82
2022/01/09 08:44:06;;;;;;;175.00;99.47;;;1.90;99.90;;;;;;5080290;28;20040;-83
2022/01/09 08:46:35;;;;;;;181.00;103.20;;;1.90;99.90;;;;;;5079218;28;20052;-83
2022/01/09 08:49:03;;;;;;;195.73;106.00;;;1.90;99.90;;;;;;5080231;28;20036;-82
2022/01/09 08:51:32;;;;;;;185.55;105.15;;;1.90;99.90;;;;;;5064231;28;20048;-82
2022/01/09 08:54:01;;;;;;;188.32;104.43;;;1.90;99.90;;;;;;5081742;28;20087;-83
2022/01/09 08:56:29;;;;;;;178.93;101.65;;;2.00;99.90;;;;;;5082088;28;20119;-84
2022/01/09 08:59:01;;;;;;;175.60;99.18;;;2.10;99.90;;;;;;5062452;28;20068;-82
2022/01/09 09:01:29;;;;;;;174.88;100.78;;;2.10;99.90;;;;;;5083072;28;20052;-80
2022/01/09 09:03:56;;;;;;;162.60;93.40;;;2.20;99.90;;;;;;5082570;28;20358;-82
2022/01/09 09:06:24;;;;;;;162.13;93.25;;;2.20;99.90;;;;;;5064023;28;20047;-81
2022/01/09 09:08:53;;;;;;;158.52;88.40;;;2.30;99.90;;;;;;5082163;28;20326;-81
2022/01/09 09:11:20;;;;;;;152.57;85.72;;;2.30;99.90;;;;;;5087876;28;20111;-81
2022/01/09 09:13:48;;;;;;;143.13;82.57;;;2.50;99.90;;;;;;5084548;28;20108;-81
2022/01/09 09:16:17;;;;;;;140.35;80.72;;;2.60;99.90;;;;;;5094991;28;20052;-79
2022/01/09 09:18:46;;;;;;;138.07;74.50;;;2.60;99.90;;;;;;5091067;28;20040;-79
2022/01/09 09:21:14;;;;;;;117.90;64.57;;;2.80;99.90;;;;;;5075808;28;20044;-77
2022/01/09 09:23:42;;;;;;;110.18;60.75;;;3.00;99.90;;;;;;5069046;28;20052;-77
2022/01/09 09:26:12;;;;;;;135.90;76.25;;;3.10;99.90;;;;;;5061938;28;20411;-81
2022/01/09 09:28:39;;;;;;;126.20;69.97;;;3.10;99.90;;;;;;5061775;28;20120;-79
2022/01/09 09:31:07;;;;;;;115.85;66.28;;;3.10;99.90;;;;;;5072879;28;20099;-78
2022/01/09 09:33:34;;;;;;;120.30;67.53;;;3.10;99.90;;;;;;5074454;28;20048;-77
2022/01/09 09:36:03;;;;;;;97.35;53.90;;;3.10;99.90;;;;;;5055881;28;20044;-77
2022/01/09 09:38:31;;;;;;;97.90;56.20;;;3.30;99.90;;;;;;5075326;28;20044;-79
2022/01/09 09:40:59;;;;;;;92.32;53.15;;;3.40;99.90;;;;;;5076593;28;20128;-77
2022/01/09 09:43:28;;;;;;;71.97;44.10;;;3.50;99.90;;;;;;5072650;28;20429;-76
2022/01/09 09:45:56;;;;;;;90.30;53.30;;;3.60;99.90;;;;;;5076398;28;20033;-78
2022/01/09 09:48:24;;;;;;;67.53;39.83;;;3.60;99.90;;;;;;5076708;28;20597;-77
2022/01/09 09:50:51;;;;;;;75.53;41.03;;;3.70;99.90;;;;;;5060428;28;20049;-78
2022/01/09 09:53:19;;;;;;;74.35;44.00;;;3.80;99.90;;;;;;5065212;28;20036;-79
2022/01/09 09:55:48;;;;;;;76.10;43.42;;;3.90;99.90;;;;;;5075784;28;20036;-77
2022/01/09 09:58:16;;;;;;;84.38;49.08;;;4.10;99.90;;;;;;5068122;28;20105;-79
2022/01/09 10:00:52;;;;;;;74.32;43.72;;;4.20;99.90;;;;;;5080382;28;20067;-79
2022/01/09 10:03:28;;;;;;;74.75;41.97;;;4.20;99.90;;;;;;5076717;28;20040;-79
2022/01/09 10:05:55;;;;;;;77.32;43.58;;;4.30;99.90;;;;;;5077646;28;20074;-79
2022/01/09 10:08:23;;;;;;;79.18;44.63;;;4.30;99.90;;;;;;5081450;28;20090;-78
2022/01/09 10:10:50;;;;;;;80.43;43.53;;;4.30;99.90;;;;;;5084904;28;20047;-81
2022/01/09 10:13:22;;;;;;;73.70;42.10;;;4.40;99.90;;;;;;5080262;28;20040;-77
2022/01/09 10:15:53;;;;;;;76.03;42.83;;;4.50;99.90;;;;;;5080135;28;20043;-80
2022/01/09 10:18:38;;;;;;;73.72;41.80;;;4.50;99.90;;;;;;5077760;28;20051;-78
2022/01/09 10:21:08;;;;;;;74.35;41.78;;;4.50;99.90;;;;;;5077572;28;20048;-78
2022/01/09 10:23:35;;;;;;;67.80;38.75;;;4.60;99.90;;;;;;5094249;28;20051;-80
2022/01/09 10:26:11;;;;;;;76.38;42.35;;;4.50;99.90;;;;;;5082573;28;20514;-77
2022/01/09 10:28:40;;;;;;;77.88;42.03;;;4.50;99.90;;;;;;5078430;28;20044;-78
2022/01/09 10:31:17;;;;;;;68.10;39.35;;;4.50;99.90;;;;;;5079238;28;20036;-79
2022/01/09 10:33:59;;;;;;;67.65;38.90;;;4.60;99.90;;;;;;5093682;28;20040;-78
2022/01/09 10:36:37;;;;;;;64.60;36.28;;;4.80;99.90;;;;;;5074891;28;20068;-77
2022/01/09 10:39:07;;;;;;;64.15;36.03;;;4.90;99.90;;;;;;5075274;28;20423;-80
2022/01/09 10:41:49;;;;;;;62.67;36.30;;;5.00;99.90;;;;;;5057792;28;20049;-78
2022/01/09 10:44:18;;;;;;;57.42;34.55;;;5.10;99.90;;;;;;5075621;28;20044;-78
2022/01/09 10:46:56;;;;;;;54.75;32.83;;;5.10;99.90;;;;;;5074283;28;20430;-83
2022/01/09 10:49:24;;;;;;;54.17;32.03;;;5.20;99.90;;;;;;5058478;28;20249;-81
2022/01/09 10:51:52;;;;;;;57.03;34.50;;;5.40;99.90;;;;;;5054316;28;20053;-81
2022/01/09 10:54:30;;;;;;;56.33;33.28;;;5.40;99.90;;;;;;5069658;28;20048;-77
2022/01/09 10:57:12;;;;;;;58.35;33.08;;;5.50;99.90;;;;;;5079411;28;20032;-81
2022/01/09 10:59:40;;;;;;;54.05;29.77;;;5.60;99.90;;;;;;5079189;28;20119;-80
2022/01/09 11:02:12;;;;;;;52.60;30.83;;;5.50;99.90;;;;;;5076582;28;20135;-81
2022/01/09 11:04:40;;;;;;;63.17;35.70;;;5.50;99.90;;;;;;5082069;28;20055;-76
2022/01/09 11:07:09;;;;;;;61.33;35.03;;;5.60;99.90;;;;;;5113566;28;20066;-79
2022/01/09 11:09:39;;;;;;;62.40;36.50;;;5.70;99.90;;;;;;5083254;28;20052;-79
2022/01/09 11:12:08;;;;;;;61.45;35.97;;;5.60;99.90;;;;;;5098158;28;20044;-79
2022/01/09 11:14:41;;;;;;;59.05;34.50;;;5.60;99.90;;;;;;5095827;28;20043;-77
2022/01/09 11:17:10;;;;;;;59.53;37.20;;;5.60;99.90;;;;;;5077367;28;20051;-79
2022/01/09 11:19:39;;;;;;;62.63;36.40;;;5.70;99.90;;;;;;5077434;28;20105;-78
2022/01/09 11:22:08;;;;;;;61.08;35.53;;;5.70;99.90;;;;;;5095488;28;20098;-77
2022/01/09 11:25:08;;;;;;;64.22;38.08;;;5.60;99.90;;;;;;5077364;28;20048;-79
2022/01/09 11:27:51;;;;;;;74.32;42.30;;;5.60;99.90;;;;;;5096728;28;20047;-77
2022/01/09 11:30:26;;;;;;;82.55;47.97;;;5.70;99.90;;;;;;5106210;28;20028;-78
2022/01/09 11:33:11;;;;;;;96.15;51.22;;;5.80;99.90;;;;;;5117794;28;20108;-79
2022/01/09 11:35:49;;;;;;;91.43;52.65;;;5.90;99.90;;;;;;5099396;28;20044;-77
2022/01/09 11:38:25;;;;;;;92.95;51.03;;;5.90;99.90;;;;;;5118100;28;20040;-79
2022/01/09 11:40:52;;;;;;;81.50;47.42;;;5.90;99.90;;;;;;5100163;28;20028;-78
2022/01/09 11:43:21;;;;;;;67.78;38.78;;;5.90;99.90;;;;;;5090627;28;20495;-80
2022/01/09 11:45:59;;;;;;;71.45;41.72;;;5.80;99.90;;;;;;5078446;28;20580;-78
2022/01/09 11:51:20;;;;;;;63.72;36.70;;;5.90;99.90;;;;;;5114285;27;20391;-79
2022/01/09 11:54:10;;;;;;;73.15;40.97;;;6.00;99.90;;;;;;5114188;28;20418;-80
2022/01/09 11:57:03;;;;;;;67.65;37.30;;;5.90;99.90;;;;;;5114873;28;20063;-77
2022/01/09 11:59:32;;;;;;;70.05;37.40;;;5.90;99.90;;;;;;5109594;28;20052;-78
2022/01/09 12:02:01;;;;;;;74.03;41.75;;;5.80;99.90;;;;;;5115832;28;20067;-77
2022/01/09 12:04:54;;;;;;;66.38;37.05;;;5.70;99.90;;;;;;5112635;28;20089;-77
2022/01/09 12:08:05;;;;;;;53.17;30.83;;;5.70;99.90;;;;;;5110951;28;20039;-78
2022/01/09 12:10:36;;;;;;;60.50;31.27;;;5.70;99.90;;;;;;5109756;28;20063;-77
2022/01/09 12:13:07;;;;;;;59.38;35.10;;;5.70;99.90;;;;;;5110424;28;20515;-78
2022/01/09 12:15:44;;;;;;;68.40;38.45;;;5.80;99.90;;;;;;5109616;28;20043;-77
2022/01/09 12:18:43;;;;;;;60.75;34.53;;;5.90;99.90;;;;;;5110439;28;20048;-78
2022/01/09 12:21:12;;;;;;;61.75;35.33;;;5.90;99.90;;;;;;5114876;28;20111;-76
2022/01/09 12:23:39;;;;;;;62.88;35.70;;;6.00;99.90;;;;;;5112295;28;20097;-76
2022/01/09 12:26:27;;;;;;;50.38;29.23;;;6.00;99.90;;;;;;5111509;28;20125;-77
2022/01/09 12:28:54;;;;;;;44.72;25.60;;;6.00;99.90;;;;;;5109884;28;20048;-77
2022/01/09 12:31:25;;;;;;;41.38;23.10;;;6.10;99.90;;;;;;5110750;28;20036;-78
2022/01/09 12:33:53;;;;;;;45.28;24.92;;;6.20;99.90;;;;;;5110847;28;20051;-77
2022/01/09 12:36:34;;;;;;;52.30;30.30;;;6.20;99.90;;;;;;5108919;28;20575;-77
2022/01/09 12:39:05;;;;;;;54.95;31.13;;;6.20;99.90;;;;;;5109349;28;20044;-76
2022/01/09 12:41:42;;;;;;;53.78;29.10;;;6.30;99.90;;;;;;5111871;28;20032;-78